Time;durP1;ratioP1;P1;durP2;ratioP2;P2;SDS_P1;SDS_P2;PMS_P1;PMS_P2;Temp;Humidity;BMP_temperature;BMP_pressure;BME280_temperature;BME280_humidity;BME280_pressure;Samples;Min_cycle;Max_cycle;Signal;HPM_P1;HPM_P2
2023/08/11 00:01:07;;;;;;;3.53;2.25;;;;;;;20.43;55.85;100356.06;4938507;29;20078;-80
2023/08/11 00:03:34;;;;;;;3.60;2.25;;;;;;;20.40;56.27;100356.31;4956113;29;20150;-80
2023/08/11 00:06:01;;;;;;;4.43;2.00;;;;;;;20.38;56.13;100365.47;4955825;29;20470;-80
2023/08/11 00:08:27;;;;;;;4.97;2.58;;;;;;;20.35;55.88;100369.25;4955478;29;20078;-80
2023/08/11 00:10:54;;;;;;;6.45;3.15;;;;;;;20.31;56.12;100362.47;4938478;29;20107;-79
2023/08/11 00:13:21;;;;;;;3.80;2.42;;;;;;;20.27;55.92;100366.41;4955429;29;20054;-80
2023/08/11 00:15:48;;;;;;;3.40;2.22;;;;;;;20.24;56.16;100367.53;4955467;29;20457;-80
2023/08/11 00:18:15;;;;;;;6.28;2.67;;;;;;;20.20;56.22;100367.94;4954926;28;20464;-80
2023/08/11 00:20:42;;;;;;;3.45;2.28;;;;;;;20.16;56.10;100370.03;4955544;29;20059;-80
2023/08/11 00:23:09;;;;;;;4.10;2.72;;;;;;;20.12;56.32;100358.78;4955275;29;20074;-79
2023/08/11 00:25:36;;;;;;;5.35;2.60;;;;;;;20.08;56.29;100365.38;4937368;29;20090;-80
2023/08/11 00:28:07;;;;;;;3.65;2.40;;;;;;;20.04;56.30;100363.94;4937219;29;20043;-79
2023/08/11 00:30:33;;;;;;;3.67;2.70;;;;;;;20.00;56.69;100358.00;4955014;29;20047;-79
2023/08/11 00:33:00;;;;;;;5.68;2.45;;;;;;;19.98;56.88;100359.09;4955323;29;20047;-80
2023/08/11 00:35:27;;;;;;;3.50;2.78;;;;;;;19.94;56.56;100366.53;4972124;28;20065;-80
2023/08/11 00:37:53;;;;;;;4.45;2.90;;;;;;;19.91;56.83;100362.31;4974008;28;20078;-79
2023/08/11 00:40:20;;;;;;;4.60;2.72;;;;;;;19.89;56.98;100363.44;4974302;28;20055;-79
2023/08/11 00:42:49;;;;;;;4.22;2.60;;;;;;;19.86;57.02;100363.69;4974289;28;20618;-80
2023/08/11 00:45:16;;;;;;;3.83;2.70;;;;;;;19.82;57.09;100356.91;4956951;28;20078;-80
2023/08/11 00:47:43;;;;;;;6.50;3.20;;;;;;;19.80;57.20;100362.38;4973968;28;20130;-80
2023/08/11 00:50:12;;;;;;;6.10;3.00;;;;;;;19.77;57.23;100358.16;4974262;28;20050;-79
2023/08/11 00:52:39;;;;;;;4.97;3.15;;;;;;;19.73;57.34;100354.06;4974178;28;20043;-79
2023/08/11 00:55:08;;;;;;;3.28;2.78;;;;;;;19.72;57.60;100357.72;4974000;28;20137;-79
2023/08/11 00:57:36;;;;;;;4.07;2.90;;;;;;;19.70;57.30;100354.31;4956238;28;20125;-80
2023/08/11 01:00:13;;;;;;;4.10;3.13;;;;;;;19.69;57.51;100354.47;4974161;28;20117;-79
2023/08/11 01:02:42;;;;;;;4.32;3.03;;;;;;;19.66;57.40;100351.06;4956460;28;20122;-80
2023/08/11 01:05:15;;;;;;;5.78;3.00;;;;;;;19.64;57.63;100347.69;4973874;28;20133;-80
2023/08/11 01:08:18;;;;;;;4.35;3.00;;;;;;;19.60;57.72;100348.94;4973536;28;20086;-80
2023/08/11 01:11:03;;;;;;;6.60;3.40;;;;;;;19.59;57.99;100351.75;4961593;28;20053;-80
2023/08/11 01:13:36;;;;;;;7.55;2.92;;;;;;;19.60;57.78;100354.28;4973714;28;20137;-79
2023/08/11 01:16:04;;;;;;;4.35;2.70;;;;;;;19.60;57.69;100354.28;4973576;28;20081;-79
2023/08/11 01:18:33;;;;;;;4.18;2.50;;;;;;;19.59;57.95;100351.75;4973268;28;20043;-80
2023/08/11 01:21:05;;;;;;;3.78;2.33;;;;;;;19.55;57.87;100339.63;4973710;28;20053;-80
2023/08/11 01:23:33;;;;;;;3.92;2.53;;;;;;;19.54;58.02;100341.44;4973603;28;20583;-80
2023/08/11 01:26:01;;;;;;;3.40;2.40;;;;;;;19.52;57.98;100346.91;4973525;28;20452;-81
2023/08/11 01:28:27;;;;;;;4.43;2.80;;;;;;;19.51;58.14;100345.22;4972578;28;20043;-80
2023/08/11 01:30:54;;;;;;;3.20;2.40;;;;;;;19.49;58.31;100341.00;4955998;28;20086;-79
2023/08/11 01:33:22;;;;;;;5.32;2.60;;;;;;;19.47;58.48;100332.28;4956340;28;20403;-80
2023/08/11 01:35:48;;;;;;;4.25;2.80;;;;;;;19.45;58.34;100332.41;4973356;28;20054;-79
2023/08/11 01:38:15;;;;;;;3.40;2.30;;;;;;;19.44;58.07;100340.56;4972794;28;20137;-80
2023/08/11 01:40:41;;;;;;;4.25;2.78;;;;;;;19.40;58.36;100338.13;4973040;28;20078;-79
2023/08/11 01:43:10;;;;;;;5.35;2.90;;;;;;;19.38;58.47;100334.75;4970815;28;20492;-80
2023/08/11 01:45:38;;;;;;;9.95;2.70;;;;;;;19.38;58.66;100324.09;4955785;28;20043;-80
2023/08/11 01:48:06;;;;;;;5.05;2.67;;;;;;;19.38;58.33;100323.22;4955678;28;20046;-80
2023/08/11 01:50:33;;;;;;;5.75;2.60;;;;;;;19.37;58.64;100329.56;4973234;28;20085;-80
2023/08/11 01:53:00;;;;;;;5.70;2.45;;;;;;;19.34;58.72;100322.66;4955683;28;20130;-80
2023/08/11 01:55:28;;;;;;;5.13;2.88;;;;;;;19.35;58.57;100320.81;4973115;28;20058;-79
2023/08/11 01:57:55;;;;;;;6.45;3.40;;;;;;;19.35;58.51;100327.00;4955153;28;20086;-82
2023/08/11 02:00:26;;;;;;;4.93;2.80;;;;;;;19.33;58.60;100318.28;4956317;28;20054;-80
2023/08/11 02:02:53;;;;;;;3.85;2.60;;;;;;;19.33;58.64;100314.78;4970437;28;20050;-80
2023/08/11 02:05:21;;;;;;;4.40;2.78;;;;;;;19.33;58.47;100315.59;4972774;28;20050;-80
2023/08/11 02:07:48;;;;;;;5.78;3.30;;;;;;;19.33;58.74;100312.09;4972424;28;20074;-80
2023/08/11 02:10:14;;;;;;;5.30;3.30;;;;;;;19.33;58.82;100320.94;4972246;28;20559;-79
2023/08/11 02:12:41;;;;;;;3.47;2.85;;;;;;;19.31;58.77;100314.91;4972583;28;20499;-80
2023/08/11 02:15:08;;;;;;;4.32;3.05;;;;;;;19.30;58.66;100315.88;4972756;28;20130;-78
2023/08/11 02:17:34;;;;;;;4.28;3.10;;;;;;;19.29;59.01;100308.88;4955108;28;20078;-80
2023/08/11 02:20:13;;;;;;;5.25;3.10;;;;;;;19.28;58.83;100309.81;4972455;28;20090;-80
2023/08/11 02:22:40;;;;;;;9.13;3.17;;;;;;;19.27;58.72;100306.31;4955493;28;20050;-80
2023/08/11 02:25:07;;;;;;;5.53;3.13;;;;;;;19.27;58.89;100311.66;4955409;28;20994;-80
2023/08/11 02:27:33;;;;;;;6.75;3.20;;;;;;;19.27;58.95;100308.13;4971949;28;20058;-80
2023/08/11 02:30:01;;;;;;;8.45;3.72;;;;;;;19.26;58.88;100309.94;4971677;28;20122;-79
2023/08/11 02:32:28;;;;;;;8.88;3.17;;;;;;;19.25;59.09;100308.25;4972190;28;20468;-78
2023/08/11 02:34:57;;;;;;;7.95;3.75;;;;;;;19.22;59.14;100311.19;4970554;28;20060;-80
2023/08/11 02:37:25;;;;;;;6.57;2.92;;;;;;;19.24;58.80;100305.72;4954302;28;20503;-81
2023/08/11 02:39:51;;;;;;;6.57;3.20;;;;;;;19.23;59.08;100306.69;4972170;28;20038;-80
2023/08/11 02:42:18;;;;;;;4.43;3.38;;;;;;;19.22;58.98;100305.84;4962817;28;20130;-81
2023/08/11 02:44:45;;;;;;;4.60;3.05;;;;;;;19.22;59.10;100297.84;4952850;28;20049;-80
2023/08/11 02:47:12;;;;;;;6.70;3.20;;;;;;;19.22;58.91;100303.16;4971999;28;20105;-80
2023/08/11 02:49:38;;;;;;;3.78;2.88;;;;;;;19.21;59.16;100300.66;4955186;28;20129;-80
2023/08/11 02:52:05;;;;;;;4.38;2.70;;;;;;;19.21;58.90;100300.66;4971955;28;20093;-80
2023/08/11 02:54:32;;;;;;;4.50;2.70;;;;;;;19.21;59.42;100298.00;4972363;28;20105;-80
2023/08/11 02:56:58;;;;;;;4.72;2.90;;;;;;;19.23;59.14;100298.69;4971629;28;20117;-81
2023/08/11 02:59:25;;;;;;;4.43;2.78;;;;;;;19.21;59.26;100293.47;4951952;28;20051;-80
2023/08/11 03:01:51;;;;;;;4.13;3.17;;;;;;;19.21;59.05;100290.81;4971302;28;20129;-80
2023/08/11 03:04:18;;;;;;;5.57;3.75;;;;;;;19.21;59.28;100290.81;4971612;28;20105;-81
2023/08/11 03:06:45;;;;;;;2.70;2.50;;;;;;;19.22;58.98;100286.34;4954638;28;20083;-79
2023/08/11 03:09:12;;;;;;;7.30;3.00;;;;;;;19.20;58.79;100288.28;4971673;28;20050;-80
2023/08/11 03:11:38;;;;;;;4.55;3.30;;;;;;;19.21;59.25;100284.66;4954772;28;20128;-80
2023/08/11 03:14:05;;;;;;;7.65;3.17;;;;;;;19.19;59.28;100282.09;4972100;28;20082;-80
2023/08/11 03:16:32;;;;;;;6.90;3.13;;;;;;;19.20;58.90;100285.59;4971923;28;20531;-80
2023/08/11 03:18:59;;;;;;;3.92;3.00;;;;;;;19.19;59.60;100283.91;4954480;28;20571;-81
2023/08/11 03:21:25;;;;;;;7.15;3.15;;;;;;;19.18;59.25;100279.56;4954803;28;20082;-79
2023/08/11 03:23:52;;;;;;;6.70;2.92;;;;;;;19.18;59.29;100284.91;4972057;28;20186;-78
2023/08/11 03:26:19;;;;;;;6.95;2.88;;;;;;;19.15;59.41;100286.00;4971867;28;20043;-80
2023/08/11 03:28:45;;;;;;;4.78;3.15;;;;;;;19.15;59.29;100278.00;4969212;28;20094;-80
2023/08/11 03:31:12;;;;;;;4.82;2.72;;;;;;;19.14;59.09;100284.31;4971801;28;20043;-80
2023/08/11 03:33:38;;;;;;;4.28;2.95;;;;;;;19.14;59.13;100287.00;4952931;28;20063;-81
2023/08/11 03:36:05;;;;;;;5.32;3.38;;;;;;;19.11;59.21;100280.06;4971650;28;20086;-80
2023/08/11 03:38:31;;;;;;;7.45;3.00;;;;;;;19.10;59.45;100282.91;4954458;28;20043;-80
2023/08/11 03:40:58;;;;;;;4.38;2.53;;;;;;;19.07;59.42;100284.00;4971630;28;20130;-79
2023/08/11 03:43:24;;;;;;;3.72;2.47;;;;;;;19.06;59.56;100281.47;4954522;28;20406;-79
2023/08/11 03:45:52;;;;;;;4.00;2.40;;;;;;;19.04;59.22;100278.88;4954788;28;20058;-79
2023/08/11 03:48:19;;;;;;;5.07;2.65;;;;;;;19.04;59.27;100278.03;4971349;28;20555;-79
2023/08/11 03:50:45;;;;;;;4.93;2.70;;;;;;;19.02;59.46;100270.16;4971814;28;20129;-80
2023/08/11 03:53:13;;;;;;;3.42;2.65;;;;;;;19.00;59.70;100277.44;4972504;28;20043;-80
2023/08/11 03:55:46;;;;;;;4.97;2.60;;;;;;;18.99;59.65;100275.78;4975160;28;20133;-79
2023/08/11 03:58:14;;;;;;;4.63;2.60;;;;;;;18.99;59.63;100278.44;4974064;28;20050;-81
2023/08/11 04:00:41;;;;;;;4.38;2.42;;;;;;;18.99;59.47;100278.44;4974963;28;20101;-80
2023/08/11 04:03:09;;;;;;;5.85;2.45;;;;;;;18.96;59.71;100276.03;4975110;28;20055;-80
2023/08/11 04:05:36;;;;;;;4.07;2.67;;;;;;;18.95;59.45;100274.34;4975136;28;20042;-80
2023/08/11 04:08:04;;;;;;;11.15;3.20;;;;;;;18.95;59.96;100269.00;4974900;28;20050;-79
2023/08/11 04:10:31;;;;;;;3.65;2.50;;;;;;;18.94;59.93;100276.16;4974886;28;20714;-81
2023/08/11 04:12:58;;;;;;;3.92;2.50;;;;;;;18.94;59.73;100280.63;4974889;28;20051;-80
2023/08/11 04:15:24;;;;;;;3.30;2.30;;;;;;;18.94;59.75;100275.28;4974646;28;20085;-80
2023/08/11 04:17:51;;;;;;;5.18;2.70;;;;;;;18.95;59.85;100285.00;4974436;28;20109;-80
2023/08/11 04:20:18;;;;;;;4.13;2.75;;;;;;;18.95;60.14;100285.00;4974567;28;20506;-80
2023/08/11 04:22:45;;;;;;;3.40;2.50;;;;;;;18.95;59.81;100280.50;4974448;28;20463;-80
2023/08/11 04:25:12;;;;;;;5.97;2.80;;;;;;;18.95;60.11;100280.50;4974395;28;20108;-80
2023/08/11 04:27:39;;;;;;;5.00;2.65;;;;;;;18.98;59.93;100279.38;4974216;28;20364;-80
2023/08/11 04:30:07;;;;;;;12.50;2.35;;;;;;;18.97;60.13;100272.38;4971801;28;20140;-80
2023/08/11 04:32:34;;;;;;;5.35;2.55;;;;;;;18.97;60.06;100273.22;4956330;28;20053;-81
2023/08/11 04:35:01;;;;;;;3.60;2.55;;;;;;;18.99;59.91;100265.09;4972937;28;20137;-79
2023/08/11 04:37:27;;;;;;;6.55;2.60;;;;;;;18.99;60.16;100270.44;4972784;28;20074;-79
2023/08/11 04:39:54;;;;;;;5.35;2.80;;;;;;;19.00;60.11;100261.44;4956189;28;20050;-79
2023/08/11 04:42:20;;;;;;;4.07;3.03;;;;;;;19.00;60.14;100266.78;4953434;28;20539;-80
2023/08/11 04:44:47;;;;;;;4.03;2.97;;;;;;;19.02;60.22;100267.47;4954619;29;20051;-79
2023/08/11 04:47:14;;;;;;;4.45;3.10;;;;;;;19.01;60.44;100272.00;4954462;29;20047;-81
2023/08/11 04:49:42;;;;;;;4.47;3.03;;;;;;;19.02;60.29;100275.50;4954302;29;20050;-79
2023/08/11 04:52:09;;;;;;;4.88;2.95;;;;;;;19.03;60.17;100279.88;4953562;29;20058;-78
2023/08/11 04:54:36;;;;;;;4.47;3.45;;;;;;;19.05;60.22;100277.03;4953912;29;20047;-81
2023/08/11 04:57:02;;;;;;;3.45;2.47;;;;;;;19.07;60.51;100277.81;4954040;29;20110;-80
2023/08/11 04:59:29;;;;;;;7.57;2.97;;;;;;;19.09;60.22;100266.03;4953702;29;20578;-80
2023/08/11 05:01:55;;;;;;;4.65;2.92;;;;;;;19.11;60.50;100269.41;4953927;29;20057;-79
2023/08/11 05:04:22;;;;;;;4.18;2.53;;;;;;;19.13;60.57;100267.47;4953485;28;20494;-79
2023/08/11 05:06:49;;;;;;;3.25;2.40;;;;;;;19.16;60.38;100274.34;4953895;29;20113;-79
2023/08/11 05:09:15;;;;;;;4.10;2.75;;;;;;;19.19;60.33;100276.78;4953505;29;20114;-79
2023/08/11 05:11:42;;;;;;;4.82;2.95;;;;;;;19.23;60.44;100272.00;4953987;29;20051;-79
2023/08/11 05:14:08;;;;;;;2.97;2.42;;;;;;;19.24;60.41;100279.03;4954089;29;20149;-79
2023/08/11 05:16:35;;;;;;;4.43;2.70;;;;;;;19.26;60.50;100283.25;4953856;29;20480;-78
2023/08/11 05:19:01;;;;;;;5.10;2.35;;;;;;;19.30;60.55;100278.53;4953700;29;20047;-79
2023/08/11 05:21:28;;;;;;;5.75;2.80;;;;;;;19.34;60.33;100289.75;4953770;29;20145;-79
2023/08/11 05:23:54;;;;;;;4.68;3.00;;;;;;;19.36;59.96;100287.81;4954140;29;20492;-79
2023/08/11 05:26:21;;;;;;;6.25;2.60;;;;;;;19.39;60.00;100279.53;4937138;29;20078;-78
2023/08/11 05:28:47;;;;;;;6.25;2.63;;;;;;;19.43;60.38;100275.63;4953968;29;20053;-79
2023/08/11 05:31:14;;;;;;;7.40;2.65;;;;;;;19.46;60.34;100277.19;4954025;29;20102;-79
2023/08/11 05:33:40;;;;;;;3.78;2.88;;;;;;;19.52;60.28;100279.34;4953925;29;20102;-79
2023/08/11 05:36:07;;;;;;;4.28;2.83;;;;;;;19.56;60.61;100285.25;4953737;29;20464;-79
2023/08/11 05:38:33;;;;;;;3.78;2.20;;;;;;;19.60;60.43;100278.66;4953918;29;20066;-78
2023/08/11 05:41:00;;;;;;;2.85;2.30;;;;;;;19.63;60.04;100281.91;4936720;29;20050;-79
2023/08/11 05:43:26;;;;;;;6.22;2.60;;;;;;;19.67;60.14;100269.97;4954029;29;20047;-81
2023/08/11 05:49:33;;;;;;;3.75;2.10;;;;;;;19.78;59.89;100260.19;4954879;29;20042;-79
2023/08/11 05:52:00;;;;;;;3.13;2.10;;;;;;;19.81;59.70;100267.91;4954912;29;20507;-79
2023/08/11 05:54:26;;;;;;;3.90;2.00;;;;;;;19.84;59.89;100264.97;4955004;29;20488;-79
2023/08/11 05:56:54;;;;;;;5.50;2.28;;;;;;;19.88;60.02;100265.53;4954410;29;20138;-78
2023/08/11 05:59:21;;;;;;;4.07;2.22;;;;;;;19.93;59.63;100268.66;4953547;29;20113;-79
2023/08/11 06:01:48;;;;;;;3.58;2.35;;;;;;;19.97;59.81;100266.56;4936436;29;20051;-79
2023/08/11 06:04:15;;;;;;;6.03;2.22;;;;;;;20.00;59.86;100266.31;4953473;29;20043;-79
2023/08/11 06:06:41;;;;;;;4.60;1.98;;;;;;;20.04;59.79;100259.72;4953383;29;20722;-78
2023/08/11 06:09:08;;;;;;;3.78;1.90;;;;;;;20.10;59.61;100263.66;4936049;29;20059;-79
2023/08/11 06:11:36;;;;;;;3.85;2.15;;;;;;;20.14;59.58;100263.25;4953384;29;20388;-79
2023/08/11 06:14:03;;;;;;;4.07;2.20;;;;;;;20.19;59.50;100265.53;4936214;29;20151;-79
2023/08/11 06:16:29;;;;;;;1.90;1.70;;;;;;;20.23;59.37;100260.75;4953162;28;20187;-79
2023/08/11 06:18:56;;;;;;;3.42;1.90;;;;;;;20.28;59.66;100261.16;4953042;29;20043;-79
2023/08/11 06:21:23;;;;;;;3.47;2.03;;;;;;;20.33;59.53;100252.75;4953321;29;20114;-78
2023/08/11 06:23:50;;;;;;;4.18;2.50;;;;;;;20.36;59.87;100250.63;4953052;29;20089;-75
2023/08/11 06:26:16;;;;;;;4.85;2.10;;;;;;;20.43;59.63;100256.25;4952572;29;20050;-79
2023/08/11 06:28:43;;;;;;;3.60;2.00;;;;;;;20.46;59.96;100258.66;4952592;29;20047;-78
2023/08/11 06:31:10;;;;;;;2.65;2.20;;;;;;;20.52;59.70;100263.44;4953016;29;20082;-79
2023/08/11 06:33:36;;;;;;;3.42;2.13;;;;;;;20.56;59.68;100262.16;4952944;29;20083;-78
2023/08/11 06:36:03;;;;;;;3.83;2.30;;;;;;;20.61;59.64;100260.91;4952918;29;20093;-79
2023/08/11 06:38:32;;;;;;;3.97;1.92;;;;;;;20.65;59.67;100263.16;4919834;29;20110;-79
2023/08/11 06:40:58;;;;;;;5.30;2.10;;;;;;;20.69;59.53;100274.41;4952231;29;20551;-79
2023/08/11 06:43:25;;;;;;;6.47;2.10;;;;;;;20.73;59.67;100264.28;4952674;29;20050;-78
2023/08/11 06:45:51;;;;;;;4.13;2.35;;;;;;;20.79;59.78;100266.41;4953187;29;20130;-78
2023/08/11 06:48:18;;;;;;;2.70;2.17;;;;;;;20.84;59.51;100261.47;4952660;29;20059;-78
2023/08/11 06:50:44;;;;;;;3.78;2.00;;;;;;;20.88;59.42;100262.91;4952923;29;20086;-79
2023/08/11 06:53:11;;;;;;;3.88;1.80;;;;;;;20.93;59.49;100259.81;4952927;29;20047;-79
2023/08/11 06:55:37;;;;;;;6.05;2.58;;;;;;;20.98;59.39;100251.34;4952779;29;20052;-78
2023/08/11 06:58:04;;;;;;;6.13;2.08;;;;;;;21.03;59.41;100254.41;4952436;29;20110;-76
2023/08/11 07:00:30;;;;;;;2.95;2.00;;;;;;;21.07;59.10;100247.78;4952926;29;20071;-79
2023/08/11 07:02:57;;;;;;;2.53;1.85;;;;;;;21.13;59.18;100252.59;4952690;29;20543;-79
2023/08/11 07:05:23;;;;;;;2.60;1.70;;;;;;;21.17;59.23;100256.66;4952784;29;20055;-79
2023/08/11 07:07:50;;;;;;;3.08;1.77;;;;;;;21.24;59.04;100266.78;4952376;29;20043;-78
2023/08/11 07:10:16;;;;;;;4.13;1.95;;;;;;;21.28;58.85;100263.69;4952711;29;20047;-80
2023/08/11 07:12:43;;;;;;;4.57;1.77;;;;;;;21.33;58.87;100264.06;4952628;29;20133;-75
2023/08/11 07:15:10;;;;;;;4.97;2.33;;;;;;;21.39;58.57;100265.34;4952783;29;20086;-78
2023/08/11 07:17:36;;;;;;;4.45;1.83;;;;;;;21.45;58.63;100262.06;4952525;29;20043;-79
2023/08/11 07:20:03;;;;;;;2.40;1.50;;;;;;;21.52;57.98;100259.63;4952355;29;20059;-78
2023/08/11 07:22:30;;;;;;;2.50;1.58;;;;;;;21.58;58.23;100263.56;4951918;29;20039;-77
2023/08/11 07:24:57;;;;;;;9.40;2.13;;;;;;;21.63;58.25;100263.97;4933856;29;20039;-78
2023/08/11 07:27:23;;;;;;;3.08;1.75;;;;;;;21.69;58.02;100259.84;4952593;28;20089;-79
2023/08/11 07:29:50;;;;;;;2.70;1.60;;;;;;;21.76;58.28;100265.50;4955023;29;20098;-79
2023/08/11 07:32:16;;;;;;;5.30;1.85;;;;;;;21.82;57.89;100260.38;4955110;29;20039;-78
2023/08/11 07:34:43;;;;;;;3.85;1.65;;;;;;;21.87;57.93;100259.94;4955481;29;20110;-79
2023/08/11 07:37:09;;;;;;;3.63;1.77;;;;;;;21.92;57.48;100262.16;4955914;29;20116;-76
2023/08/11 07:39:36;;;;;;;4.40;1.90;;;;;;;21.98;57.64;100257.03;4955926;29;20055;-79
2023/08/11 07:42:03;;;;;;;1.52;1.42;;;;;;;22.03;57.61;100267.34;4939122;29;20043;-79
2023/08/11 07:44:30;;;;;;;1.70;1.20;;;;;;;22.08;57.67;100265.03;4956029;29;20468;-79
2023/08/11 07:46:57;;;;;;;2.10;1.50;;;;;;;22.16;57.15;100263.44;4938682;29;20121;-79
2023/08/11 07:49:27;;;;;;;3.30;1.55;;;;;;;22.19;56.92;100263.97;4956128;29;20091;-79
2023/08/11 07:51:54;;;;;;;2.20;1.40;;;;;;;22.28;57.62;100258.72;4955859;29;20130;-79
2023/08/11 07:54:20;;;;;;;3.92;1.42;;;;;;;22.35;56.84;100257.13;4938608;29;20091;-78
2023/08/11 07:56:47;;;;;;;1.95;1.40;;;;;;;22.41;56.48;100258.31;4955877;29;20082;-79
2023/08/11 07:59:13;;;;;;;2.58;1.27;;;;;;;22.45;56.46;100255.19;4955552;29;20142;-79
2023/08/11 08:01:41;;;;;;;2.15;1.10;;;;;;;22.52;56.19;100266.16;4955714;29;20051;-79
2023/08/11 08:04:10;;;;;;;2.75;1.33;;;;;;;22.56;55.95;100259.50;4955559;29;20403;-79
2023/08/11 08:06:43;;;;;;;2.80;1.33;;;;;;;22.62;55.96;100266.94;4955500;29;20102;-76
2023/08/11 08:09:11;;;;;;;1.55;1.27;;;;;;;22.67;55.58;100253.06;4955535;29;20051;-78
2023/08/11 08:11:39;;;;;;;2.28;1.40;;;;;;;22.71;55.31;100262.50;4938727;29;20051;-79
2023/08/11 08:14:05;;;;;;;2.35;1.23;;;;;;;22.77;55.43;100266.41;4955576;29;20072;-78
2023/08/11 08:16:32;;;;;;;1.60;1.35;;;;;;;22.83;55.41;100264.94;4938327;29;20055;-79
2023/08/11 08:18:58;;;;;;;2.75;1.42;;;;;;;22.89;55.77;100264.31;4938192;29;20047;-79
2023/08/11 08:21:25;;;;;;;2.95;1.30;;;;;;;22.97;55.34;100266.19;4955494;29;20098;-79
2023/08/11 08:23:52;;;;;;;2.40;1.70;;;;;;;23.02;55.57;100267.44;4955316;29;20443;-79
2023/08/11 08:26:18;;;;;;;4.68;1.58;;;;;;;23.13;55.14;100278.91;4955484;29;20452;-76
2023/08/11 08:28:45;;;;;;;2.78;1.23;;;;;;;23.20;54.53;100273.72;4955263;29;20099;-79
2023/08/11 08:31:11;;;;;;;2.03;1.35;;;;;;;23.26;54.69;100273.13;4955612;29;20043;-79
2023/08/11 08:33:38;;;;;;;3.42;1.60;;;;;;;23.32;54.26;100277.84;4955225;29;20039;-80
2023/08/11 08:36:04;;;;;;;4.47;1.73;;;;;;;23.38;54.57;100279.09;4955333;29;20047;-79
2023/08/11 08:38:31;;;;;;;2.40;1.70;;;;;;;23.45;54.28;100273.91;4953718;28;20044;-79
2023/08/11 08:40:57;;;;;;;3.13;1.40;;;;;;;23.51;54.56;100281.38;4954952;29;20535;-79
2023/08/11 08:43:25;;;;;;;2.45;1.80;;;;;;;23.58;54.69;100277.00;4955062;29;20098;-79
2023/08/11 08:45:53;;;;;;;2.20;1.45;;;;;;;23.66;54.54;100273.53;4955183;29;20039;-78
2023/08/11 08:48:26;;;;;;;2.88;1.70;;;;;;;23.74;53.82;100270.88;4954614;29;20047;-76
2023/08/11 08:50:53;;;;;;;3.70;1.70;;;;;;;23.86;54.04;100274.13;4954916;29;20567;-79
2023/08/11 08:53:20;;;;;;;6.63;2.00;;;;;;;23.94;54.67;100266.09;4937816;29;20063;-78
2023/08/11 08:55:47;;;;;;;2.03;1.65;;;;;;;24.04;54.87;100263.25;4954740;29;20067;-77
2023/08/11 08:58:15;;;;;;;3.72;1.73;;;;;;;24.15;55.29;100262.13;4954408;29;20090;-79
2023/08/11 09:00:42;;;;;;;4.38;1.92;;;;;;;24.26;54.72;100268.22;4954480;29;20507;-79
2023/08/11 09:03:10;;;;;;;4.20;1.65;;;;;;;24.36;54.11;100263.53;4954810;29;20126;-79
2023/08/11 09:05:37;;;;;;;4.40;2.20;;;;;;;24.49;53.88;100270.25;4954690;29;20078;-79
2023/08/11 09:08:04;;;;;;;2.55;1.67;;;;;;;24.58;53.32;100269.25;4954377;29;20053;-81
2023/08/11 09:10:31;;;;;;;2.80;1.85;;;;;;;24.68;53.65;100269.97;4954517;29;20067;-75
2023/08/11 09:12:58;;;;;;;3.88;1.90;;;;;;;24.79;53.39;100266.09;4954432;29;20131;-78
2023/08/11 09:15:24;;;;;;;5.20;1.70;;;;;;;24.89;53.77;100265.91;4954336;29;20146;-79
2023/08/11 09:17:51;;;;;;;2.80;1.90;;;;;;;24.99;52.99;100271.13;4937231;29;20130;-78
2023/08/11 09:20:19;;;;;;;6.82;2.13;;;;;;;25.09;52.54;100265.56;4954184;29;20499;-79
2023/08/11 09:22:46;;;;;;;3.42;1.70;;;;;;;25.17;52.52;100268.25;4954366;29;20051;-79
2023/08/11 09:25:12;;;;;;;3.90;2.33;;;;;;;25.27;52.47;100267.22;4954118;29;20107;-78
2023/08/11 09:27:39;;;;;;;3.25;2.03;;;;;;;25.34;52.26;100265.53;4953793;29;20057;-78
2023/08/11 09:30:09;;;;;;;2.75;1.90;;;;;;;25.41;51.54;100260.28;4936779;29;20055;-79
2023/08/11 09:32:36;;;;;;;2.67;1.80;;;;;;;25.52;52.95;100254.50;4936899;29;20086;-80
2023/08/11 09:35:08;;;;;;;5.20;1.98;;;;;;;25.59;51.88;100255.53;4937073;29;20055;-78
2023/08/11 09:37:36;;;;;;;3.08;1.90;;;;;;;25.71;51.76;100255.16;4953651;29;20389;-79
2023/08/11 09:40:04;;;;;;;2.65;1.95;;;;;;;25.81;51.33;100247.69;4953872;29;20043;-79
2023/08/11 09:42:32;;;;;;;4.68;2.20;;;;;;;25.91;51.69;100254.72;4953757;29;20047;-79
2023/08/11 09:44:59;;;;;;;2.45;1.98;;;;;;;25.96;50.67;100247.78;4937021;29;20395;-79
2023/08/11 09:47:28;;;;;;;7.20;2.28;;;;;;;26.01;50.75;100255.31;4936555;29;20062;-79
2023/08/11 09:49:55;;;;;;;4.72;2.40;;;;;;;26.08;50.62;100258.16;4953460;28;20046;-79
2023/08/11 09:52:23;;;;;;;2.40;2.00;;;;;;;26.14;50.31;100258.31;4953832;29;20055;-79
2023/08/11 09:54:54;;;;;;;2.85;2.22;;;;;;;26.19;49.73;100257.75;4936536;29;20744;-78
2023/08/11 09:57:22;;;;;;;3.60;2.50;;;;;;;26.24;49.69;100259.94;4936213;29;20157;-78
2023/08/11 09:59:52;;;;;;;4.47;2.30;;;;;;;26.30;50.77;100259.25;4953840;29;20063;-79
2023/08/11 10:02:22;;;;;;;6.47;2.35;;;;;;;26.36;49.12;100263.09;4953650;29;20130;-79
2023/08/11 10:04:57;;;;;;;3.67;2.30;;;;;;;26.41;48.87;100258.84;4953686;29;20130;-76
2023/08/11 10:07:34;;;;;;;4.25;2.35;;;;;;;26.51;49.07;100260.44;4936581;29;20053;-80
2023/08/11 10:10:08;;;;;;;4.65;2.00;;;;;;;26.58;47.36;100250.63;4936758;29;20089;-79
2023/08/11 10:12:37;;;;;;;3.65;2.50;;;;;;;26.67;48.77;100246.81;4953521;29;20051;-78
2023/08/11 10:15:04;;;;;;;3.22;2.35;;;;;;;26.77;49.30;100253.81;4936380;29;20098;-78
2023/08/11 10:17:31;;;;;;;3.78;2.22;;;;;;;26.86;49.96;100250.03;4953080;29;20043;-77
2023/08/11 10:20:04;;;;;;;3.97;2.20;;;;;;;26.95;49.19;100250.84;4953084;29;20059;-79
2023/08/11 10:22:32;;;;;;;4.10;2.35;;;;;;;27.05;49.17;100261.34;4953446;29;20063;-81
2023/08/11 10:25:04;;;;;;;3.25;2.45;;;;;;;27.13;47.32;100253.16;4953354;29;20048;-79
2023/08/11 10:27:31;;;;;;;2.85;2.00;;;;;;;27.23;48.31;100255.59;4953040;29;20081;-79
2023/08/11 10:29:59;;;;;;;3.55;2.30;;;;;;;27.31;48.09;100251.97;4953108;29;20094;-78
2023/08/11 10:32:31;;;;;;;3.55;2.30;;;;;;;27.36;46.59;100252.25;4953298;29;20107;-79
2023/08/11 10:34:58;;;;;;;;;;;;;;;27.44;49.07;100254.84;4953880;29;20066;-79
2023/08/11 10:37:30;;;;;;;2.83;1.92;;;;;;;27.57;48.11;100253.34;4935957;29;19958;-77
2023/08/11 10:40:08;;;;;;;4.05;2.45;;;;;;;27.66;47.95;100256.84;4936116;29;20083;-78
2023/08/11 10:42:40;;;;;;;3.88;2.40;;;;;;;27.76;47.35;100243.00;4953107;29;20054;-77
2023/08/11 10:45:09;;;;;;;3.67;2.20;;;;;;;27.89;48.07;100245.91;4952880;29;20067;-79
2023/08/11 10:47:51;;;;;;;4.13;2.15;;;;;;;27.98;47.04;100246.59;4952837;29;20126;-79
2023/08/11 10:50:18;;;;;;;6.37;2.23;;;;;;;28.15;47.15;100235.56;4953168;29;20058;-79
2023/08/11 10:53:05;;;;;;;2.58;2.25;;;;;;;28.23;46.60;100241.66;4952839;29;20512;-79
2023/08/11 10:55:36;;;;;;;3.35;2.10;;;;;;;28.43;46.09;100240.22;4952766;29;20051;-78
2023/08/11 10:58:12;;;;;;;2.92;2.05;;;;;;;28.62;45.63;100233.31;4952763;29;20051;-79
2023/08/11 11:00:40;;;;;;;4.15;1.83;;;;;;;28.92;47.36;100237.75;4936037;29;20425;-79
2023/08/11 11:03:07;;;;;;;2.25;1.75;;;;;;;29.24;48.62;100233.59;4955647;29;20054;-77
2023/08/11 11:05:33;;;;;;;3.45;2.25;;;;;;;29.69;47.17;100237.78;4956938;29;20393;-79
2023/08/11 11:08:00;;;;;;;5.13;1.92;;;;;;;30.22;46.30;100230.84;4956583;29;20529;-79
2023/08/11 11:10:28;;;;;;;4.82;2.00;;;;;;;30.80;46.73;100232.16;4956846;29;20508;-77
2023/08/11 11:13:12;;;;;;;2.13;1.92;;;;;;;31.49;44.94;100225.53;4956872;29;20047;-78
2023/08/11 11:15:39;;;;;;;3.28;1.83;;;;;;;32.09;44.16;100231.75;4956760;29;20396;-79
2023/08/11 11:18:06;;;;;;;2.63;1.95;;;;;;;32.68;43.91;100222.53;4956269;29;20412;-80
2023/08/11 11:20:33;;;;;;;3.38;1.77;;;;;;;33.25;43.63;100227.03;4956555;29;20504;-79
2023/08/11 11:22:59;;;;;;;1.73;1.50;;;;;;;33.78;42.10;100222.84;4956668;29;20099;-79
2023/08/11 11:25:26;;;;;;;3.55;1.70;;;;;;;34.30;41.24;100223.38;4956389;29;20043;-80
2023/08/11 11:27:52;;;;;;;6.22;1.70;;;;;;;34.78;41.22;100220.72;4956072;29;20091;-80
2023/08/11 11:30:19;;;;;;;1.52;1.42;;;;;;;35.23;38.40;100216.53;4956335;29;20107;-78